Time;durP1;ratioP1;P1;durP2;ratioP2;P2;SDS_P1;SDS_P2;PMS_P1;PMS_P2;Temp;Humidity;BMP_temperature;BMP_pressure;BME280_temperature;BME280_humidity;BME280_pressure;Samples;Min_cycle;Max_cycle;Signal;HPM_P1;HPM_P2
2022/12/29 00:02:16;;;;;;;2.70;2.13;;;;;;;6.27;62.40;99751.97;4911078;28;20056;-73
2022/12/29 00:04:42;;;;;;;3.60;2.55;;;;;;;5.89;63.45;99743.94;4908312;29;20032;-74
2022/12/29 00:07:08;;;;;;;2.50;2.30;;;;;;;6.58;61.25;99753.38;4906064;28;20056;-73
2022/12/29 00:09:34;;;;;;;2.30;1.98;;;;;;;6.37;62.15;99740.34;4892101;29;20118;-74
2022/12/29 00:12:01;;;;;;;2.72;1.80;;;;;;;6.29;62.46;99730.28;4892772;28;20111;-74
2022/12/29 00:17:11;;;;;;;2.53;2.08;;;;;;;6.53;60.86;99742.31;4895962;28;20139;-74
2022/12/29 00:36:11;;;;;;;1.83;1.25;;;;;;;6.93;60.12;99717.25;4899787;29;20152;-76
2022/12/29 00:44:12;;;;;;;1.90;1.33;;;;;;;6.89;59.88;99691.44;4892626;29;20071;-73
2022/12/29 00:46:40;;;;;;;2.85;1.52;;;;;;;7.00;59.59;99708.28;4894288;28;20047;-74
2022/12/29 00:51:51;;;;;;;1.85;1.20;;;;;;;6.68;61.04;99697.53;4913128;28;20216;-73
2022/12/29 00:54:17;;;;;;;3.83;1.83;;;;;;;6.94;60.39;99690.38;4914985;29;20120;-72
2022/12/29 00:56:45;;;;;;;1.67;1.27;;;;;;;7.04;60.13;99692.53;4913132;28;20536;-71
2022/12/29 00:59:11;;;;;;;3.40;1.75;;;;;;;6.73;61.15;99680.03;4904947;29;20058;-73
2022/12/29 01:01:38;;;;;;;4.15;1.63;;;;;;;6.74;61.51;99668.72;4911039;28;20489;-75
2022/12/29 01:04:04;;;;;;;2.00;1.75;;;;;;;6.68;61.90;99677.59;4896556;29;20142;-74
2022/12/29 01:06:30;;;;;;;2.85;1.65;;;;;;;6.92;61.60;99685.25;4909640;28;20035;-74
2022/12/29 01:11:40;;;;;;;2.38;1.75;;;;;;;6.60;62.55;99679.69;4913199;28;20110;-73
2022/12/29 01:14:07;;;;;;;2.85;2.05;;;;;;;7.03;61.33;99684.78;4913031;29;20042;-73
2022/12/29 01:16:33;;;;;;;2.53;1.52;;;;;;;6.81;62.34;99672.72;4912878;28;20051;-73
2022/12/29 01:18:58;;;;;;;2.25;1.50;;;;;;;7.22;60.90;99670.06;4929013;28;20032;-75
2022/12/29 01:21:24;;;;;;;2.20;1.60;;;;;;;7.14;60.99;99669.56;4914161;29;20094;-75
2022/12/29 01:23:50;;;;;;;3.20;1.80;;;;;;;6.63;62.62;99683.91;4905865;29;20036;-75
2022/12/29 01:26:17;;;;;;;2.88;2.47;;;;;;;6.60;62.66;99674.50;4913996;29;20050;-76
2022/12/29 01:28:43;;;;;;;1.73;1.48;;;;;;;6.76;62.32;99661.69;4912964;28;20906;-75
2022/12/29 01:31:09;;;;;;;3.17;2.20;;;;;;;6.34;62.63;99673.00;4914745;29;20036;-74
2022/12/29 01:33:36;;;;;;;2.70;1.80;;;;;;;7.17;60.65;99666.81;4894262;28;20044;-77
2022/12/29 01:36:03;;;;;;;2.25;1.70;;;;;;;6.71;62.35;99650.69;4896887;29;20205;-76
2022/12/29 01:38:30;;;;;;;5.07;1.65;;;;;;;7.02;61.22;99649.31;4896238;28;20071;-78
2022/12/29 01:40:55;;;;;;;3.15;1.95;;;;;;;7.22;60.70;99644.06;4897572;29;20071;-78
2022/12/29 01:43:21;;;;;;;2.25;1.60;;;;;;;7.12;60.10;99645.41;4911728;28;20139;-76
2022/12/29 01:45:53;;;;;;;3.13;2.17;;;;;;;6.99;61.14;99634.69;4913937;29;20043;-77
2022/12/29 01:48:19;;;;;;;2.80;1.65;;;;;;;7.13;60.49;99647.06;4932420;28;20118;-77
2022/12/29 01:50:54;;;;;;;2.17;1.63;;;;;;;6.81;61.87;99646.75;4920581;29;20461;-77
2022/12/29 01:53:30;;;;;;;2.60;1.77;;;;;;;6.94;61.14;99634.06;4916399;28;20596;-76
2022/12/29 01:56:00;;;;;;;2.45;1.63;;;;;;;7.44;59.74;99635.28;4916626;29;21457;-78
2022/12/29 01:58:31;;;;;;;2.17;1.85;;;;;;;6.93;60.73;99639.31;4915206;29;20046;-76
2022/12/29 02:00:56;;;;;;;1.98;1.33;;;;;;;7.11;60.77;99628.13;4916021;29;20055;-75
2022/12/29 02:03:26;;;;;;;3.25;1.55;;;;;;;7.13;60.39;99636.69;4912022;28;20485;-75
2022/12/29 02:06:01;;;;;;;1.73;1.45;;;;;;;7.20;60.19;99635.50;4906342;29;20122;-75
2022/12/29 02:08:29;;;;;;;1.88;1.42;;;;;;;7.27;59.72;99636.91;4912767;28;20059;-74
2022/12/29 02:10:59;;;;;;;2.83;1.48;;;;;;;7.07;60.67;99629.19;4918671;29;20103;-74
2022/12/29 02:13:26;;;;;;;8.90;2.42;;;;;;;7.24;60.09;99629.22;4919070;28;20043;-75
2022/12/29 02:15:54;;;;;;;1.63;1.45;;;;;;;6.69;61.60;99621.34;4915405;29;20146;-78
2022/12/29 02:18:47;;;;;;;3.25;1.23;;;;;;;7.14;60.43;99627.97;4913449;28;20039;-75
2022/12/29 02:21:19;;;;;;;1.65;1.20;;;;;;;7.47;59.18;99635.16;4916978;29;20036;-77
2022/12/29 02:24:10;;;;;;;2.28;1.10;;;;;;;7.22;59.86;99618.09;4927779;28;20059;-76
2022/12/29 02:27:00;;;;;;;4.07;1.80;;;;;;;6.90;60.65;99609.97;4911000;28;20114;-75
2022/12/29 02:29:28;;;;;;;3.83;1.63;;;;;;;7.17;59.63;99609.63;4915314;29;20047;-75
2022/12/29 02:32:21;;;;;;;2.53;1.05;;;;;;;7.17;60.04;99601.84;4912104;28;20047;-75
2022/12/29 02:34:50;;;;;;;4.25;1.10;;;;;;;7.60;58.78;99604.22;4910566;29;20036;-75
2022/12/29 02:37:30;;;;;;;2.33;1.27;;;;;;;7.37;59.22;99606.13;4912007;29;20052;-75
2022/12/29 02:40:15;;;;;;;3.83;1.25;;;;;;;7.02;60.04;99602.53;4941077;28;20236;-76
2022/12/29 02:43:01;;;;;;;2.03;1.00;;;;;;;6.95;61.13;99595.94;4910930;28;20685;-75
2022/12/29 02:46:09;;;;;;;2.05;1.17;;;;;;;7.55;59.45;99581.03;4895417;29;20386;-75
2022/12/29 02:49:27;;;;;;;2.35;1.30;;;;;;;7.32;60.20;99590.75;4903666;29;20757;-75
2022/12/29 02:52:03;;;;;;;2.20;1.30;;;;;;;7.41;59.84;99586.88;4861467;28;20053;-75
2022/12/29 02:54:41;;;;;;;1.63;0.88;;;;;;;7.63;58.94;99586.72;4915042;29;20039;-76
2022/12/29 02:57:33;;;;;;;1.63;1.08;;;;;;;7.43;59.82;99561.66;4906425;28;20035;-75
2022/12/29 03:00:02;;;;;;;2.28;1.58;;;;;;;7.11;60.40;99570.97;4887960;29;20044;-76
2022/12/29 03:02:57;;;;;;;2.35;1.50;;;;;;;7.05;60.88;99568.66;4890680;29;20048;-73
2022/12/29 03:05:42;;;;;;;2.03;1.48;;;;;;;7.27;60.44;99560.69;4890314;29;20040;-73
2022/12/29 03:08:19;;;;;;;2.55;1.33;;;;;;;7.17;60.15;99542.06;4889821;29;20048;-72
2022/12/29 03:10:55;;;;;;;1.98;1.20;;;;;;;7.48;59.34;99548.44;4892821;29;20036;-74
2022/12/29 03:16:29;;;;;;;2.40;1.40;;;;;;;7.32;59.62;99545.72;4898225;29;20079;-74
2022/12/29 03:19:08;;;;;;;4.30;1.15;;;;;;;7.06;60.47;99542.56;4912533;29;20050;-74
2022/12/29 03:24:38;;;;;;;1.65;0.77;;;;;;;7.69;58.29;99529.22;4928609;28;20027;-75
2022/12/29 03:27:07;;;;;;;3.35;1.08;;;;;;;7.53;58.51;99528.22;4906083;29;20051;-75
2022/12/29 03:29:46;;;;;;;1.60;0.75;;;;;;;7.93;57.65;99528.91;4913302;29;20034;-75
2022/12/29 03:32:15;;;;;;;1.77;0.73;;;;;;;7.55;58.71;99526.44;4907972;28;20063;-75
2022/12/29 03:34:41;;;;;;;1.27;0.75;;;;;;;7.23;59.44;99526.19;4894902;29;20126;-77
2022/12/29 03:37:12;;;;;;;2.03;0.98;;;;;;;6.90;60.62;99552.84;4894167;29;20585;-76
2022/12/29 03:39:38;;;;;;;1.83;0.63;;;;;;;7.38;59.43;99526.38;4870309;29;20032;-76
2022/12/29 03:42:13;;;;;;;3.72;0.77;;;;;;;7.19;60.18;99529.84;4874466;29;20039;-77
2022/12/29 03:44:42;;;;;;;3.10;0.93;;;;;;;7.44;59.37;99516.53;4913605;28;20035;-76
2022/12/29 03:47:11;;;;;;;1.48;0.60;;;;;;;7.05;60.54;99522.72;4915340;28;20046;-73
2022/12/29 03:49:37;;;;;;;1.45;0.98;;;;;;;7.26;59.96;99528.66;4921711;29;20143;-79
2022/12/29 03:52:05;;;;;;;1.40;0.38;;;;;;;6.99;60.99;99525.59;4915594;28;20066;-73
2022/12/29 03:54:35;;;;;;;1.10;0.40;;;;;;;7.12;60.00;99521.50;4931192;28;20280;-78
2022/12/29 03:57:00;;;;;;;1.23;0.60;;;;;;;7.45;59.45;99519.97;4915344;28;20054;-78
2022/12/29 03:59:41;;;;;;;5.88;0.95;;;;;;;7.18;60.35;99524.75;4913562;29;20035;-73
2022/12/29 04:02:06;;;;;;;0.90;0.32;;;;;;;6.97;61.14;99522.22;4910838;28;20489;-76
2022/12/29 04:04:33;;;;;;;1.15;0.50;;;;;;;7.05;61.04;99519.28;4910670;29;20265;-76
2022/12/29 04:06:58;;;;;;;0.90;0.38;;;;;;;7.21;60.62;99515.03;4903223;29;20577;-75
2022/12/29 04:09:24;;;;;;;1.73;0.40;;;;;;;6.36;62.95;99525.84;4889895;29;20043;-76
2022/12/29 04:11:51;;;;;;;0.63;0.25;;;;;;;6.86;61.65;99525.34;4898660;29;20040;-77
2022/12/29 04:14:18;;;;;;;1.25;0.20;;;;;;;6.93;61.43;99519.84;4914378;29;20653;-78
2022/12/29 04:16:44;;;;;;;4.25;0.40;;;;;;;6.78;62.03;99534.41;4909415;29;20064;-73
2022/12/29 04:19:11;;;;;;;3.53;0.70;;;;;;;6.40;63.09;99530.00;4896056;29;20602;-73
2022/12/29 04:21:36;;;;;;;2.78;0.63;;;;;;;6.72;61.52;99526.88;4892145;29;20414;-74
2022/12/29 04:24:06;;;;;;;3.45;0.20;;;;;;;6.88;60.76;99515.69;4897552;29;20042;-74
2022/12/29 04:26:33;;;;;;;1.65;0.40;;;;;;;7.13;59.46;99522.34;4891529;28;20032;-73
2022/12/29 04:29:07;;;;;;;0.95;0.25;;;;;;;6.66;60.84;99525.38;4915651;29;20040;-75
2022/12/29 04:31:39;;;;;;;0.77;0.28;;;;;;;7.08;59.41;99526.94;4918336;28;20153;-76
2022/12/29 04:34:06;;;;;;;1.20;0.38;;;;;;;7.05;58.78;99527.09;4918919;29;20047;-75
2022/12/29 04:36:32;;;;;;;2.22;0.30;;;;;;;7.11;58.64;99521.59;4920886;28;20035;-73
2022/12/29 04:38:58;;;;;;;4.10;0.20;;;;;;;7.38;57.96;99521.19;4901679;29;20036;-74
2022/12/29 04:41:24;;;;;;;0.70;0.28;;;;;;;6.93;59.69;99530.22;4899037;29;20037;-74
2022/12/29 04:43:50;;;;;;;1.52;0.50;;;;;;;6.67;60.33;99534.88;4890753;29;20044;-74
2022/12/29 04:46:47;;;;;;;0.90;0.20;;;;;;;6.76;60.34;99526.66;4893235;28;20458;-73
2022/12/29 04:49:33;;;;;;;0.88;0.20;;;;;;;7.24;58.94;99545.22;4897456;29;20415;-76
2022/12/29 04:52:14;;;;;;;0.55;0.35;;;;;;;7.45;58.11;99531.22;4896256;29;20044;-74
2022/12/29 04:54:41;;;;;;;1.00;0.40;;;;;;;7.11;59.57;99534.59;4881470;29;20032;-74
2022/12/29 04:57:12;;;;;;;0.60;0.20;;;;;;;6.74;60.31;99546.66;4903353;28;20047;-73
2022/12/29 04:59:38;;;;;;;1.45;0.82;;;;;;;7.09;59.34;99526.88;4916391;29;20670;-73
2022/12/29 05:02:04;;;;;;;2.35;0.70;;;;;;;7.51;57.82;99527.47;4917387;28;20071;-74
2022/12/29 05:04:32;;;;;;;1.40;0.40;;;;;;;6.94;59.06;99532.78;4918837;29;20062;-74
2022/12/29 05:06:58;;;;;;;1.00;0.30;;;;;;;7.09;58.80;99521.66;4918412;28;20071;-75
2022/12/29 05:09:24;;;;;;;2.33;0.60;;;;;;;7.03;58.78;99536.69;4920832;29;20576;-74
2022/12/29 05:11:49;;;;;;;1.83;0.57;;;;;;;7.11;59.24;99535.44;4917817;28;20138;-74
2022/12/29 05:14:15;;;;;;;1.33;0.20;;;;;;;7.20;58.10;99534.16;4919709;29;20032;-75
2022/12/29 05:16:44;;;;;;;0.55;0.30;;;;;;;6.80;59.57;99541.19;4918479;28;20777;-74
2022/12/29 05:19:09;;;;;;;0.98;0.30;;;;;;;6.80;59.04;99542.97;4935169;28;20028;-73
2022/12/29 05:21:35;;;;;;;1.20;0.30;;;;;;;6.77;59.15;99543.09;4918951;28;20043;-75
2022/12/29 05:24:01;;;;;;;3.30;1.02;;;;;;;7.15;58.21;99541.31;4904485;29;20028;-75
2022/12/29 05:26:27;;;;;;;0.80;0.20;;;;;;;6.85;58.45;99544.41;4917933;28;20040;-73
2022/12/29 05:29:13;;;;;;;0.40;0.10;;;;;;;6.99;57.90;99541.19;4908741;29;20046;-73
2022/12/29 05:31:39;;;;;;;3.67;0.32;;;;;;;7.02;57.71;99551.44;4930496;28;20035;-72
2022/12/29 05:34:05;;;;;;;2.35;0.25;;;;;;;7.10;57.32;99548.47;4929274;28;20043;-74
2022/12/29 05:36:31;;;;;;;1.88;0.10;;;;;;;7.49;56.28;99553.56;4914030;28;20138;-73
2022/12/29 05:38:59;;;;;;;0.65;0.20;;;;;;;6.81;57.49;99545.47;4896745;29;20039;-73
2022/12/29 05:41:25;;;;;;;2.65;0.22;;;;;;;6.26;57.71;99537.50;4891827;29;20040;-72
2022/12/29 05:44:10;;;;;;;1.60;0.10;;;;;;;6.96;56.26;99556.09;4897310;29;20473;-74
2022/12/29 05:46:55;;;;;;;0.98;0.10;;;;;;;6.56;57.10;99563.91;4892737;28;20099;-73
2022/12/29 05:49:42;;;;;;;6.38;0.30;;;;;;;6.78;56.71;99552.56;4891069;29;20050;-73
2022/12/29 05:52:17;;;;;;;4.63;0.10;;;;;;;7.01;55.88;99556.72;4893350;28;20760;-72
2022/12/29 05:54:43;;;;;;;0.77;0.10;;;;;;;6.95;56.16;99559.56;4892466;29;20565;-72
2022/12/29 05:57:12;;;;;;;4.55;0.20;;;;;;;6.77;56.34;99551.72;4890811;29;20593;-73
2022/12/29 05:59:39;;;;;;;0.98;0.10;;;;;;;6.45;56.46;99547.97;4879585;29;20040;-75
2022/12/29 06:02:05;;;;;;;0.80;0.10;;;;;;;6.66;55.44;99548.75;4885270;29;20115;-74
2022/12/29 06:04:30;;;;;;;8.73;0.82;;;;;;;6.48;55.78;99551.28;4912874;29;20524;-74
2022/12/29 06:06:56;;;;;;;1.38;0.10;;;;;;;6.69;55.33;99553.81;4913387;29;20107;-73
2022/12/29 06:09:31;;;;;;;4.10;0.10;;;;;;;6.20;56.32;99540.38;4915725;29;20150;-73
2022/12/29 06:11:57;;;;;;;3.70;0.40;;;;;;;6.62;55.72;99544.59;4911230;29;20119;-74
2022/12/29 06:14:22;;;;;;;4.90;0.22;;;;;;;6.46;55.74;99547.91;4929913;28;20043;-75
2022/12/29 06:16:48;;;;;;;0.70;0.25;;;;;;;6.72;55.16;99535.50;4925259;28;20147;-74
2022/12/29 06:19:13;;;;;;;1.55;0.20;;;;;;;6.33;56.54;99551.94;4879715;29;20036;-76
2022/12/29 06:21:39;;;;;;;7.90;0.55;;;;;;;6.91;55.16;99553.69;4892566;28;20103;-75
2022/12/29 06:24:05;;;;;;;1.17;0.10;;;;;;;6.09;57.73;99544.25;4902270;29;20066;-75
2022/12/29 06:26:33;;;;;;;1.60;0.22;;;;;;;6.30;57.27;99562.44;4930212;28;20040;-74
2022/12/29 06:28:59;;;;;;;4.82;0.20;;;;;;;5.90;58.09;99564.09;4915044;29;20047;-72
2022/12/29 06:31:24;;;;;;;6.97;0.20;;;;;;;6.43;56.89;99548.03;4915967;29;20126;-72
2022/12/29 06:33:50;;;;;;;3.53;0.22;;;;;;;5.81;58.09;99565.31;4912065;29;20111;-72
2022/12/29 06:36:16;;;;;;;1.20;0.47;;;;;;;6.60;56.67;99564.63;4908678;29;20050;-75
2022/12/29 06:38:41;;;;;;;6.72;0.38;;;;;;;6.55;56.47;99566.56;4913567;28;20237;-74
2022/12/29 06:41:07;;;;;;;3.10;0.28;;;;;;;6.39;56.70;99563.78;4898733;29;20513;-71
2022/12/29 06:44:02;;;;;;;4.32;0.20;;;;;;;6.41;56.62;99569.75;4913971;29;20051;-73
2022/12/29 06:46:45;;;;;;;2.70;0.40;;;;;;;6.10;57.17;99555.47;4910392;28;20109;-76
2022/12/29 06:49:11;;;;;;;5.88;0.20;;;;;;;6.35;57.09;99581.28;4914312;29;20040;-77
2022/12/29 06:51:36;;;;;;;7.60;0.40;;;;;;;6.62;56.19;99580.94;4914001;28;20055;-78
2022/12/29 06:54:02;;;;;;;3.60;0.40;;;;;;;5.92;58.06;99577.84;4913890;29;20063;-79
2022/12/29 06:56:27;;;;;;;9.55;0.30;;;;;;;6.63;56.25;99580.06;4915574;28;20040;-77
2022/12/29 06:58:53;;;;;;;4.63;0.47;;;;;;;6.03;58.18;99580.81;4913760;29;20822;-76
2022/12/29 07:01:18;;;;;;;1.52;0.65;;;;;;;6.04;57.61;99586.88;4917660;29;20095;-75
2022/12/29 07:03:44;;;;;;;1.05;0.10;;;;;;;6.46;56.95;99589.44;4913527;28;20917;-74
2022/12/29 07:06:10;;;;;;;2.58;0.30;;;;;;;5.80;58.63;99583.53;4912862;29;20158;-71
2022/12/29 07:08:36;;;;;;;3.33;1.05;;;;;;;6.41;56.63;99586.19;4913414;28;20203;-70
2022/12/29 07:11:01;;;;;;;4.55;0.25;;;;;;;5.82;57.87;99581.72;4907498;29;20035;-73
2022/12/29 07:13:27;;;;;;;3.67;0.38;;;;;;;6.40;55.97;99597.47;4893151;28;20048;-75
2022/12/29 07:15:52;;;;;;;4.40;0.20;;;;;;;5.94;57.14;99580.38;4890480;29;20399;-74
2022/12/29 07:18:18;;;;;;;6.80;0.82;;;;;;;5.68;57.09;99605.59;4904343;28;20059;-71
2022/12/29 07:20:43;;;;;;;8.55;0.90;;;;;;;6.33;55.85;99585.69;4888393;29;20039;-71
2022/12/29 07:23:09;;;;;;;4.00;0.47;;;;;;;6.21;55.57;99588.75;4904382;28;20661;-71
2022/12/29 07:25:35;;;;;;;2.22;0.30;;;;;;;6.19;55.96;99580.19;4903614;29;20039;-72
2022/12/29 07:28:05;;;;;;;4.80;1.65;;;;;;;6.12;55.85;99583.94;4905343;28;20048;-71
2022/12/29 07:30:30;;;;;;;3.42;0.50;;;;;;;6.07;55.54;99582.38;4909275;29;20044;-72
2022/12/29 07:32:56;;;;;;;7.65;0.47;;;;;;;6.07;55.92;99561.63;4891623;29;20071;-72
2022/12/29 07:35:22;;;;;;;1.90;0.20;;;;;;;5.86;56.34;99588.47;4889751;29;20341;-70
2022/12/29 07:37:47;;;;;;;5.32;1.58;;;;;;;6.27;55.24;99578.13;4899620;29;20039;-72
2022/12/29 07:40:13;;;;;;;9.27;1.20;;;;;;;5.82;55.90;99592.09;4951651;23;20444;-71
2022/12/29 07:42:39;;;;;;;4.82;0.30;;;;;;;5.59;55.95;99570.53;4979690;28;20063;-73
2022/12/29 07:45:09;;;;;;;4.15;0.30;;;;;;;5.85;55.81;99597.16;4960873;28;20118;-73
2022/12/29 07:48:09;;;;;;;2.45;0.22;;;;;;;5.98;55.39;99603.53;4957455;28;20043;-70
2022/12/29 07:50:36;;;;;;;8.05;1.00;;;;;;;5.70;55.58;99597.78;4956552;28;20528;-71
2022/12/29 07:53:03;;;;;;;8.75;0.50;;;;;;;5.73;55.86;99608.03;4957594;28;20043;-71
2022/12/29 07:55:29;;;;;;;7.63;0.60;;;;;;;6.11;54.74;99603.88;4962915;28;20062;-73
2022/12/29 07:57:56;;;;;;;2.45;0.52;;;;;;;5.51;55.81;99616.66;4958909;28;20133;-71
2022/12/29 08:00:22;;;;;;;1.20;0.30;;;;;;;5.92;54.94;99608.13;4962520;28;20118;-70
2022/12/29 08:02:49;;;;;;;5.15;0.75;;;;;;;5.88;54.66;99613.44;4959877;28;20038;-72
2022/12/29 08:05:15;;;;;;;10.23;0.75;;;;;;;5.52;55.78;99631.28;4961008;28;20046;-73
2022/12/29 08:07:43;;;;;;;3.70;0.40;;;;;;;6.29;53.83;99628.25;4963445;28;20060;-73
2022/12/29 08:10:10;;;;;;;8.63;0.70;;;;;;;5.26;56.66;99619.34;4959301;28;20078;-71
2022/12/29 08:12:37;;;;;;;9.23;0.82;;;;;;;6.29;53.87;99633.44;4963407;28;20062;-72
2022/12/29 08:15:03;;;;;;;3.85;1.15;;;;;;;5.25;56.09;99634.03;4962946;28;20034;-72
2022/12/29 08:17:28;;;;;;;9.05;0.45;;;;;;;6.27;53.81;99630.84;4952112;28;20969;-73
2022/12/29 08:19:54;;;;;;;3.67;0.40;;;;;;;6.21;53.70;99630.25;4946991;28;20041;-71
2022/12/29 08:22:19;;;;;;;3.60;0.32;;;;;;;5.74;54.72;99636.47;4945526;28;20065;-71
2022/12/29 08:27:12;;;;;;;2.67;0.20;;;;;;;5.99;54.19;99649.28;4922615;28;20054;-72
2022/12/29 08:29:37;;;;;;;7.28;0.77;;;;;;;6.19;53.42;99643.28;4942183;28;20035;-72
2022/12/29 08:32:03;;;;;;;4.97;0.73;;;;;;;6.40;52.70;99631.22;4928800;28;20076;-72
2022/12/29 08:34:31;;;;;;;13.43;0.57;;;;;;;6.53;52.67;99638.47;4937692;28;20099;-72
2022/12/29 08:36:57;;;;;;;7.55;0.57;;;;;;;6.21;52.75;99657.03;4906453;29;20580;-72
2022/12/29 08:39:24;;;;;;;6.55;0.30;;;;;;;6.13;53.58;99660.84;4922636;28;20027;-71
2022/12/29 08:41:50;;;;;;;2.85;0.32;;;;;;;6.18;53.24;99662.38;4923402;28;20518;-71
2022/12/29 08:44:16;;;;;;;5.30;0.50;;;;;;;6.08;53.35;99661.91;4894699;29;20043;-73
2022/12/29 08:46:41;;;;;;;14.90;1.48;;;;;;;5.77;54.50;99664.03;4907080;29;20040;-72
2022/12/29 08:49:07;;;;;;;13.15;1.42;;;;;;;6.23;53.34;99657.00;4895625;29;20044;-71
2022/12/29 08:51:32;;;;;;;11.95;0.73;;;;;;;6.36;52.82;99658.19;4892253;29;20087;-71
2022/12/29 08:53:58;;;;;;;6.45;0.68;;;;;;;6.31;53.21;99659.28;4908064;28;20102;-72
2022/12/29 08:56:25;;;;;;;11.07;1.17;;;;;;;6.21;54.60;99658.81;4927482;28;20040;-72
2022/12/29 08:58:54;;;;;;;3.20;0.68;;;;;;;5.77;56.62;99666.63;4908053;29;20103;-72
2022/12/29 09:01:21;;;;;;;8.05;1.52;;;;;;;5.88;56.18;99649.75;4894075;29;20430;-71
2022/12/29 09:03:47;;;;;;;9.18;0.40;;;;;;;6.08;55.26;99645.47;4907795;29;20048;-72
2022/12/29 09:06:13;;;;;;;4.28;0.57;;;;;;;6.15;55.06;99659.06;4890228;29;20043;-72
2022/12/29 09:08:39;;;;;;;9.25;0.40;;;;;;;6.03;54.89;99648.28;4893606;29;20074;-73
2022/12/29 09:11:11;;;;;;;2.17;0.22;;;;;;;6.52;53.82;99660.16;4900763;29;20577;-72
2022/12/29 09:13:36;;;;;;;7.00;0.63;;;;;;;6.20;54.11;99675.28;4899430;29;20191;-72
2022/12/29 09:16:02;;;;;;;7.53;0.90;;;;;;;6.53;53.79;99654.03;4914630;28;20028;-71
2022/12/29 09:18:27;;;;;;;3.75;0.50;;;;;;;6.34;54.16;99674.75;4928262;28;20051;-71
2022/12/29 09:21:00;;;;;;;9.85;0.75;;;;;;;6.66;53.15;99648.28;4927483;28;20485;-72
2022/12/29 09:23:26;;;;;;;3.22;0.13;;;;;;;6.37;53.32;99639.13;4912808;28;20461;-72
2022/12/29 09:25:53;;;;;;;7.18;0.60;;;;;;;6.36;53.59;99657.38;4914171;29;20035;-72
2022/12/29 09:28:19;;;;;;;6.82;0.75;;;;;;;6.36;53.10;99650.41;4928033;28;20540;-72
2022/12/29 09:30:44;;;;;;;5.22;0.65;;;;;;;6.46;53.24;99656.91;4917849;28;20063;-72
2022/12/29 09:33:10;;;;;;;5.25;0.35;;;;;;;5.75;56.95;99664.09;4910580;28;20581;-72
2022/12/29 09:35:36;;;;;;;3.75;0.45;;;;;;;6.12;55.86;99651.41;4925071;28;20115;-70
2022/12/29 09:38:01;;;;;;;7.47;0.50;;;;;;;6.44;55.21;99674.31;4925700;28;20050;-71
2022/12/29 09:40:31;;;;;;;8.23;1.10;;;;;;;5.70;57.48;99681.56;4909664;29;20096;-73
2022/12/29 09:43:11;;;;;;;5.25;1.30;;;;;;;5.46;58.20;99685.97;4908963;28;20162;-71
2022/12/29 09:46:20;;;;;;;9.30;0.82;;;;;;;5.78;56.95;99673.50;4909720;29;20031;-71
2022/12/29 09:48:50;;;;;;;16.02;0.95;;;;;;;5.48;58.02;99675.53;4901550;29;20047;-71
2022/12/29 09:51:21;;;;;;;6.45;0.50;;;;;;;6.32;55.86;99674.81;4907403;29;20699;-71
2022/12/29 09:53:56;;;;;;;10.07;0.57;;;;;;;5.40;57.46;99668.06;4905200;28;20548;-70
2022/12/29 09:56:24;;;;;;;3.33;0.80;;;;;;;6.02;55.72;99671.69;4910197;29;20094;-70
2022/12/29 09:58:57;;;;;;;10.27;0.82;;;;;;;6.26;55.23;99667.22;4922076;28;20315;-72
2022/12/29 10:01:46;;;;;;;7.70;0.60;;;;;;;6.14;55.51;99685.91;4911762;29;20099;-71
2022/12/29 10:04:12;;;;;;;9.75;0.70;;;;;;;6.05;55.64;99669.81;4908425;29;20044;-71
2022/12/29 10:06:59;;;;;;;7.35;0.40;;;;;;;6.17;55.02;99680.59;4921763;28;20493;-73
2022/12/29 10:09:32;;;;;;;13.23;0.88;;;;;;;6.22;55.26;99679.50;4923237;28;20587;-72
2022/12/29 10:12:25;;;;;;;12.13;1.58;;;;;;;6.25;55.64;99684.56;4907569;28;20409;-72
2022/12/29 10:15:15;;;;;;;8.93;1.13;;;;;;;6.22;55.90;99683.88;4919627;28;20032;-73
2022/12/29 10:17:59;;;;;;;12.15;0.85;;;;;;;6.08;56.42;99687.00;4922543;28;20133;-71
2022/12/29 10:21:07;;;;;;;8.73;0.50;;;;;;;6.38;55.36;99679.75;4906493;29;20238;-71
2022/12/29 10:23:40;;;;;;;6.90;1.27;;;;;;;6.28;54.99;99668.91;4907728;28;20063;-72
2022/12/29 10:26:13;;;;;;;12.13;0.60;;;;;;;5.87;56.33;99689.53;4926815;28;20288;-71
2022/12/29 10:28:54;;;;;;;7.40;1.50;;;;;;;6.32;55.21;99677.41;4921418;28;20079;-73
2022/12/29 10:31:43;;;;;;;7.55;0.32;;;;;;;6.16;55.62;99684.09;4908426;29;20257;-72
2022/12/29 10:34:33;;;;;;;10.63;0.93;;;;;;;6.02;57.00;99698.47;4921275;28;20051;-73
2022/12/29 10:37:09;;;;;;;5.70;0.38;;;;;;;5.94;57.92;99692.72;4924483;28;20488;-73
2022/12/29 10:39:45;;;;;;;9.88;0.82;;;;;;;6.08;57.33;99687.00;4907172;29;20166;-71
2022/12/29 10:42:24;;;;;;;6.90;0.13;;;;;;;6.28;57.04;99684.50;4922875;28;20644;-71
2022/12/29 10:44:50;;;;;;;7.10;1.58;;;;;;;6.38;56.80;99684.94;4905533;29;20066;-73
2022/12/29 10:47:30;;;;;;;6.57;0.50;;;;;;;6.50;56.52;99679.22;4898189;29;20544;-70
2022/12/29 10:49:58;;;;;;;7.13;0.73;;;;;;;6.25;56.67;99670.75;4922623;28;20039;-72
2022/12/29 10:52:26;;;;;;;3.10;0.30;;;;;;;5.87;57.16;99686.09;4905531;29;20406;-71
2022/12/29 10:55:00;;;;;;;8.40;1.08;;;;;;;5.90;57.66;99678.19;4914612;28;20039;-71
2022/12/29 10:57:28;;;;;;;9.40;0.98;;;;;;;5.88;57.12;99682.59;4908712;28;20564;-72
2022/12/29 10:59:53;;;;;;;4.30;0.50;;;;;;;6.24;56.30;99687.25;4912215;28;20650;-70
2022/12/29 11:02:28;;;;;;;4.25;0.40;;;;;;;5.22;58.25;99680.78;4923963;28;20146;-71
2022/12/29 11:05:19;;;;;;;15.48;1.35;;;;;;;6.11;56.55;99689.47;4918326;28;20412;-71
2022/12/29 11:07:48;;;;;;;5.07;0.77;;;;;;;5.29;59.11;99685.75;4907976;28;20520;-70
2022/12/29 11:10:30;;;;;;;7.90;0.68;;;;;;;6.32;56.71;99705.94;4913872;29;20037;-71
2022/12/29 11:13:17;;;;;;;4.25;0.40;;;;;;;5.69;59.09;99703.22;4909835;28;21459;-71
2022/12/29 11:15:43;;;;;;;8.40;1.35;;;;;;;5.68;59.08;99683.38;4899550;29;20035;-71
2022/12/29 11:18:36;;;;;;;2.67;0.30;;;;;;;5.40;60.14;99701.72;4908339;28;20126;-70
2022/12/29 11:21:06;;;;;;;2.92;0.52;;;;;;;5.50;59.97;99684.91;4923938;28;20031;-73
2022/12/29 11:23:40;;;;;;;5.60;0.60;;;;;;;5.21;61.58;99705.00;4923094;28;20860;-71
2022/12/29 11:26:22;;;;;;;5.22;0.65;;;;;;;5.67;60.38;99702.44;4911235;28;20190;-72
2022/12/29 11:29:14;;;;;;;6.55;0.63;;;;;;;5.55;61.01;99708.94;4909457;28;20070;-71
2022/12/29 11:31:45;;;;;;;3.88;0.52;;;;;;;4.92;62.68;99719.00;4924109;28;20137;-72
2022/12/29 11:34:23;;;;;;;5.50;0.65;;;;;;;4.97;61.72;99724.00;4925135;28;20434;-74
2022/12/29 11:36:53;;;;;;;3.97;0.47;;;;;;;5.37;61.65;99738.97;4901111;28;20044;-72
2022/12/29 11:39:25;;;;;;;6.20;0.85;;;;;;;5.23;61.67;99744.66;4914202;29;20156;-73
2022/12/29 11:41:52;;;;;;;7.03;1.20;;;;;;;5.24;61.91;99746.34;4925912;28;20051;-72
2022/12/29 11:44:18;;;;;;;6.20;1.15;;;;;;;5.30;61.85;99754.78;4907801;28;20059;-72
2022/12/29 11:46:47;;;;;;;9.57;0.60;;;;;;;5.20;62.44;99768.06;4925082;28;20309;-72
2022/12/29 11:49:24;;;;;;;8.20;0.75;;;;;;;5.05;63.58;99764.25;4926904;28;20090;-72
2022/12/29 11:51:54;;;;;;;8.30;0.45;;;;;;;5.33;62.65;99772.81;4911925;28;20098;-70
2022/12/29 11:54:33;;;;;;;5.30;0.57;;;;;;;5.31;62.73;99772.03;4909120;29;20501;-71
2022/12/29 11:57:11;;;;;;;3.45;1.48;;;;;;;4.95;63.45;99793.13;4905236;29;20875;-73
2022/12/29 11:59:41;;;;;;;4.57;0.30;;;;;;;4.84;63.69;99789.13;4929363;28;20059;-72
2022/12/29 12:02:25;;;;;;;11.20;0.90;;;;;;;5.25;62.83;99796.41;4922836;28;20082;-72
2022/12/29 12:05:00;;;;;;;5.55;0.95;;;;;;;4.89;63.48;99798.50;4905453;29;20035;-73
2022/12/29 12:07:46;;;;;;;10.02;0.95;;;;;;;4.97;62.49;99799.13;4927045;28;20136;-73
2022/12/29 12:10:23;;;;;;;5.65;0.55;;;;;;;5.55;61.22;99794.47;4912605;29;20046;-73
2022/12/29 12:13:25;;;;;;;8.30;1.08;;;;;;;5.33;61.58;99812.53;4915809;28;20354;-72
2022/12/29 12:15:56;;;;;;;3.53;1.05;;;;;;;5.05;62.25;99816.06;4922658;28;20257;-73
2022/12/29 12:18:22;;;;;;;;;;;;;;;4.78;62.96;99825.56;4933235;28;20118;-72
2022/12/29 12:20:50;;;;;;;10.77;1.52;;;;;;;4.90;62.45;99829.53;4915109;29;20376;-73
2022/12/29 12:23:46;;;;;;;7.05;0.75;;;;;;;5.07;62.14;99828.13;4916102;28;20064;-72
2022/12/29 12:26:17;;;;;;;12.20;0.82;;;;;;;5.09;61.64;99822.00;4918722;28;20611;-74
2022/12/29 12:28:58;;;;;;;5.73;0.93;;;;;;;5.72;60.15;99821.53;4914800;28;20304;-72
2022/12/29 12:31:41;;;;;;;6.97;0.70;;;;;;;5.89;59.34;99826.94;4924273;28;20860;-72
2022/12/29 12:34:22;;;;;;;9.68;1.38;;;;;;;5.98;59.22;99831.78;4919762;29;20043;-72
2022/12/29 12:37:13;;;;;;;11.13;0.98;;;;;;;6.62;57.46;99832.78;4914824;28;20413;-73
2022/12/29 12:40:03;;;;;;;12.80;1.27;;;;;;;6.44;57.12;99844.75;4917026;28;20138;-73
2022/12/29 12:42:56;;;;;;;8.43;1.17;;;;;;;6.03;58.27;99837.63;4931637;28;20062;-72